createdAt,value
2015-02-08T18:24:16.504Z,102289
2015-02-08T18:24:28.129Z,102286
2015-02-08T18:24:54.678Z,102292
2015-02-08T18:25:06.350Z,102283
2015-02-08T18:25:17.975Z,102286
2015-02-08T18:25:29.647Z,102274
2015-02-08T18:25:41.569Z,102280
2015-02-08T18:25:53.227Z,102283
2015-02-08T18:26:04.852Z,102289
2015-02-08T18:26:16.492Z,102289
2015-02-08T18:26:28.102Z,102292
2015-02-08T18:26:39.821Z,102283
2015-02-08T18:26:51.495Z,102286
2015-02-08T18:27:03.214Z,102286
2015-02-08T18:27:14.824Z,102292
2015-02-08T18:27:26.511Z,102286
2015-02-08T18:27:38.277Z,102292
2015-02-08T18:27:49.872Z,102286
2015-02-08T18:28:01.513Z,102289
2015-02-08T18:28:13.216Z,102277
2015-02-08T18:28:24.888Z,102295
2015-02-08T18:28:36.560Z,102283
2015-02-08T18:28:48.282Z,102286
2015-02-08T18:28:59.938Z,102292
2015-02-08T18:29:28.954Z,102286
2015-02-08T18:29:40.594Z,102286
2015-02-08T18:29:52.236Z,102283
2015-02-08T18:30:03.861Z,102283
2015-02-08T18:30:16.251Z,102295
2015-02-08T18:30:28.064Z,102292
2015-02-08T18:30:39.689Z,102301
2015-02-08T18:30:51.348Z,102298
2015-02-08T18:31:03.004Z,102292
2015-02-08T18:31:14.629Z,102298
2015-02-08T18:31:26.348Z,102301
2015-02-08T18:31:37.942Z,102285
2015-02-08T18:31:49.960Z,102295
2015-02-08T18:32:01.819Z,102295
2015-02-08T18:32:13.522Z,102298
2015-02-08T18:32:25.397Z,102301
2015-02-08T18:32:37.006Z,102288
2015-02-08T18:32:48.681Z,102297
2015-02-08T18:33:00.338Z,102301
2015-02-08T18:33:12.009Z,102291
2015-02-08T18:33:24.588Z,102285
2015-02-08T18:33:36.322Z,102291
2015-02-08T18:33:47.933Z,102297
2015-02-08T18:33:59.527Z,102291
2015-02-08T18:34:11.199Z,102294
2015-02-08T18:34:41.105Z,102297
2015-02-08T18:35:45.608Z,102301
2015-02-08T18:35:57.281Z,102294
2015-02-08T18:36:31.672Z,102294
2015-02-08T18:36:43.469Z,102300
2015-02-08T18:36:55.175Z,102297
2015-02-08T18:37:33.190Z,102300
2015-02-08T18:37:44.753Z,102300
2015-02-08T18:37:56.395Z,102302
2015-02-08T18:38:08.067Z,102291
2015-02-08T18:38:19.880Z,102306
2015-02-08T18:38:31.474Z,102295
2015-02-08T18:38:43.130Z,102310
2015-02-08T18:38:54.742Z,102297
2015-02-08T18:39:06.398Z,102297
2015-02-08T18:39:18.023Z,102296
2015-02-08T18:39:29.648Z,102298
2015-02-08T18:39:41.477Z,102298
2015-02-08T18:39:53.838Z,102301
2015-02-08T18:40:05.463Z,102291
2015-02-08T18:40:17.057Z,102300
2015-02-08T18:40:29.885Z,102312
2015-02-08T18:40:41.588Z,102306
2015-02-08T18:40:53.246Z,102306
2015-02-08T18:41:04.840Z,102293
2015-02-08T18:41:16.434Z,102299
2015-02-08T18:41:28.012Z,102305
2015-02-08T18:41:39.637Z,102302
2015-02-08T18:41:51.280Z,102302
2015-02-08T18:42:03.030Z,102305
2015-02-08T18:42:14.624Z,102299
2015-02-08T18:42:26.437Z,102299
2015-02-08T18:42:38.140Z,102290
2015-02-08T18:42:51.407Z,102292
2015-02-08T18:43:06.017Z,102302
2015-02-08T18:43:19.423Z,102302
2015-02-08T18:43:32.611Z,102299
2015-02-08T18:43:46.970Z,102302
2015-02-08T18:44:00.316Z,102290
2015-02-08T18:44:11.925Z,102293
2015-02-08T18:44:23.550Z,102305
2015-02-08T18:44:35.238Z,102302
2015-02-08T18:44:46.941Z,102293
2015-02-08T18:44:58.536Z,102299
2015-02-08T18:45:10.177Z,102301
2015-02-08T18:45:21.818Z,102301
2015-02-08T18:45:33.458Z,102292
2015-02-08T18:45:45.568Z,102301
2015-02-08T18:45:57.243Z,102305
2015-02-08T18:46:08.883Z,102299
2015-02-08T18:46:20.477Z,102305
2015-02-08T18:46:32.086Z,102298
2015-02-08T18:46:43.711Z,102298
2015-02-08T18:46:55.323Z,102317
2015-02-08T18:47:06.916Z,102298
2015-02-08T18:47:18.557Z,102307
2015-02-08T18:47:30.854Z,102304
2015-02-08T18:47:42.448Z,102316
2015-02-08T18:47:53.997Z,102307
2015-02-08T18:48:05.590Z,102301
2015-02-08T18:48:17.184Z,102301
2015-02-08T18:48:28.793Z,102304
2015-02-08T18:48:40.434Z,102304
2015-02-08T18:48:52.046Z,102310
2015-02-08T18:49:03.625Z,102307
2015-02-08T18:49:15.265Z,102310
2015-02-08T18:49:26.890Z,102310
2015-02-08T18:49:38.531Z,102312
2015-02-08T18:49:50.127Z,102306
2015-02-08T18:50:01.752Z,102312
2015-02-08T18:50:13.330Z,102312
2015-02-08T18:50:24.923Z,102305
2015-02-08T18:50:36.517Z,102308
2015-02-08T18:50:48.095Z,102305
2015-02-08T18:50:59.707Z,102311
2015-02-08T18:51:11.285Z,102314
2015-02-08T18:51:22.863Z,102311
2015-02-08T18:51:34.472Z,102308
2015-02-08T18:51:46.050Z,102308
2015-02-08T18:51:57.662Z,102314
2015-02-08T18:52:09.256Z,102315
2015-02-08T18:52:20.834Z,102308
2015-02-08T18:52:32.412Z,102305
2015-02-08T18:52:44.006Z,102308
2015-02-08T18:52:56.149Z,102317
2015-02-08T18:53:08.634Z,102308
2015-02-08T18:53:20.493Z,102304
2015-02-08T18:53:32.180Z,102304
2015-02-08T18:53:43.790Z,102310
2015-02-08T18:53:55.448Z,102313
2015-02-08T18:54:07.182Z,102307
2015-02-08T18:54:18.854Z,102316
2015-02-08T18:54:30.589Z,102313
2015-02-08T18:54:42.323Z,102312
2015-02-08T18:54:53.997Z,102309
2015-02-08T18:55:05.653Z,102310
2015-02-08T18:55:17.294Z,102309
2015-02-08T18:55:28.919Z,102306
2015-02-08T18:55:40.559Z,102300
2015-02-08T18:55:52.218Z,102316
2015-02-08T18:56:03.890Z,102303
2015-02-08T18:56:15.499Z,102316
2015-02-08T18:56:27.421Z,102313
2015-02-08T18:56:39.046Z,102310
2015-02-08T18:56:50.686Z,102310
2015-02-08T18:57:02.549Z,102307
2015-02-08T18:57:14.158Z,102307
2015-02-08T18:57:26.346Z,102310
2015-02-08T18:57:38.127Z,102304
2015-02-08T18:57:49.893Z,102301
2015-02-08T18:58:01.552Z,102319
2015-02-08T18:58:13.567Z,102310
2015-02-08T18:58:25.442Z,102310
2015-02-08T18:58:37.630Z,102319
2015-02-08T18:58:49.396Z,102316
2015-02-08T18:59:01.085Z,102316
2015-02-08T18:59:13.523Z,102313
2015-02-08T18:59:25.413Z,102307
2015-02-08T18:59:37.194Z,102313
2015-02-08T18:59:48.960Z,102316
2015-02-08T19:00:00.868Z,102319
2015-02-08T19:00:12.650Z,102322
2015-02-08T19:00:24.400Z,102319
2015-02-08T19:00:36.462Z,102304
2015-02-08T19:00:48.165Z,102319
2015-02-08T19:01:00.136Z,102322
2015-02-08T19:01:11.886Z,102322
2015-02-08T19:01:23.558Z,102316
2015-02-08T19:01:35.495Z,102313
2015-02-08T19:01:47.261Z,102312
2015-02-08T19:01:58.889Z,102318
2015-02-08T19:02:10.748Z,102312
2015-02-08T19:02:22.592Z,102315
2015-02-08T19:02:34.405Z,102307
2015-02-08T19:02:46.170Z,102313
2015-02-08T19:02:57.907Z,102319
2015-02-08T19:03:09.782Z,102310
2015-02-08T19:03:21.594Z,102325
2015-02-08T19:03:33.360Z,102312
2015-02-08T19:03:45.157Z,102319
2015-02-08T19:03:57.362Z,102322
2015-02-08T19:04:09.127Z,102310
2015-02-08T19:04:20.955Z,102328
2015-02-08T19:04:32.830Z,102316
2015-02-08T19:04:44.721Z,102313
2015-02-08T19:04:56.442Z,102319
2015-02-08T19:05:08.114Z,102313
2015-02-08T19:05:19.848Z,102307
2015-02-08T19:05:31.520Z,102301
2015-02-08T19:05:43.192Z,102304
2015-02-08T19:05:54.898Z,102322
2015-02-08T19:06:06.617Z,102313
2015-02-08T19:06:18.289Z,102309
2015-02-08T19:06:30.039Z,102303
2015-02-08T19:06:41.742Z,102306
2015-02-08T19:06:53.789Z,102306
2015-02-08T19:07:05.478Z,102306
2015-02-08T19:07:17.181Z,102306
2015-02-08T19:07:28.869Z,102309
2015-02-08T19:07:40.619Z,102312
2015-02-08T19:07:52.275Z,102312
2015-02-08T19:08:04.011Z,102309
2015-02-08T19:08:23.355Z,102309
2015-02-08T19:08:35.511Z,102309
2015-02-08T19:08:47.214Z,102306
2015-02-08T19:08:58.889Z,102321
2015-02-08T19:09:10.608Z,102306
2015-02-08T19:09:22.311Z,102300
2015-02-08T19:09:33.967Z,102303
2015-02-08T19:09:45.671Z,102303
2015-02-08T19:09:57.344Z,102306
2015-02-08T19:10:09.204Z,102306
2015-02-08T19:10:21.219Z,102294
2015-02-08T19:10:33.079Z,102300
2015-02-08T19:10:45.141Z,102294
2015-02-08T19:10:57.471Z,102294
2015-02-08T19:11:09.440Z,102294
2015-02-08T19:11:21.456Z,102303
2015-02-08T19:11:33.518Z,102294
2015-02-08T19:11:45.456Z,102303
2015-02-08T19:11:57.474Z,102300
2015-02-08T19:12:09.428Z,102294
2015-02-08T19:12:21.834Z,102293
2015-02-08T19:12:34.115Z,102296
2015-02-08T19:12:46.162Z,102300
2015-02-08T19:12:58.101Z,102300
2015-02-08T19:13:11.648Z,102303
2015-02-08T19:13:23.930Z,102303
2015-02-08T19:13:35.867Z,102290
2015-02-08T19:13:47.867Z,102300
2015-02-08T19:13:59.728Z,102300
2015-02-08T19:14:11.650Z,102287
2015-02-08T19:14:26.650Z,102290
2015-02-08T19:14:38.541Z,102281
2015-02-08T19:14:50.307Z,102288
2015-02-08T19:15:01.918Z,102287
2015-02-08T19:15:13.652Z,102300
2015-02-08T19:15:25.543Z,102287
2015-02-08T19:15:37.230Z,102287
2015-02-08T19:15:48.887Z,102296
2015-02-08T19:16:01.062Z,102296
2015-02-08T19:16:12.780Z,102290
2015-02-08T19:16:24.562Z,102287
2015-02-08T19:16:36.202Z,102303
2015-02-08T19:16:47.890Z,102296
2015-02-08T19:16:59.502Z,102293
2015-02-08T19:17:11.143Z,102296
2015-02-08T19:17:23.018Z,102287
2015-02-08T19:17:34.705Z,102290
2015-02-08T19:17:46.815Z,102296
2015-02-08T19:17:58.488Z,102299
2015-02-08T19:18:10.098Z,102303
2015-02-08T19:18:21.707Z,102302
2015-02-08T19:18:33.317Z,102284
2015-02-08T19:18:45.332Z,102287
2015-02-08T19:18:56.942Z,102296
2015-02-08T19:19:08.553Z,102296
2015-02-08T19:19:20.147Z,102296
2015-02-08T19:19:31.756Z,102296
2015-02-08T19:19:43.319Z,102293
2015-02-08T19:19:54.928Z,102296
2015-02-08T19:20:06.603Z,102290
2015-02-08T19:20:18.431Z,102287
2015-02-08T19:20:30.025Z,102284
2015-02-08T19:20:41.650Z,102297
2015-02-08T19:20:53.243Z,102294
2015-02-08T19:21:04.901Z,102281
2015-02-08T19:21:16.494Z,102284
2015-02-08T19:21:28.213Z,102291
2015-02-08T19:21:39.838Z,102294
2015-02-08T19:21:51.838Z,102288
2015-02-08T19:22:03.466Z,102297
2015-02-08T19:22:15.060Z,102294
2015-02-08T19:22:26.654Z,102300
2015-02-08T19:22:38.263Z,102297
2015-02-08T19:22:53.638Z,102293
2015-02-08T19:23:05.312Z,102293
2015-02-08T19:23:16.953Z,102287
2015-02-08T19:23:28.562Z,102293
2015-02-08T19:23:40.203Z,102293
2015-02-08T19:23:51.796Z,102293
2015-02-08T19:24:03.424Z,102290
2015-02-08T19:24:15.018Z,102290
2015-02-08T19:24:26.706Z,102294
2015-02-08T19:24:38.362Z,102287
2015-02-08T19:24:49.924Z,102290
2015-02-08T19:25:01.536Z,102288
2015-02-08T19:25:13.145Z,102291
2015-02-08T19:25:24.786Z,102288
2015-02-08T19:25:36.426Z,102291
2015-02-08T19:25:48.254Z,102291
2015-02-08T19:26:00.114Z,102291
2015-02-08T19:26:12.789Z,102294
2015-02-08T19:26:24.617Z,102291
2015-02-08T19:26:36.414Z,102293
2015-02-08T19:26:48.117Z,102296
2015-02-08T19:26:59.757Z,102293
2015-02-08T19:27:11.369Z,102290
2015-02-08T19:27:22.978Z,102293
2015-02-08T19:27:34.619Z,102297
2015-02-08T19:27:46.275Z,102293
2015-02-08T19:27:57.900Z,102297
2015-02-08T19:28:09.543Z,102297
2015-02-08T19:28:21.152Z,102291
2015-02-08T19:28:33.152Z,102291
2015-02-08T19:28:44.793Z,102287
2015-02-08T19:28:56.386Z,102300
2015-02-08T19:29:08.029Z,102287
2015-02-08T19:29:19.638Z,102290
2015-02-08T19:29:31.326Z,102296
2015-02-08T19:29:43.248Z,102293
2015-02-08T19:29:56.045Z,102293
2015-02-08T19:30:07.906Z,102290
2015-02-08T19:30:19.875Z,102290
2015-02-08T19:30:31.844Z,102281
2015-02-08T19:30:43.484Z,102287
2015-02-08T19:30:56.172Z,102287
2015-02-08T19:31:09.784Z,102293
2015-02-08T19:31:22.222Z,102302
2015-02-08T19:31:34.237Z,102287
2015-02-08T19:31:46.018Z,102293
2015-02-08T19:31:58.472Z,102284
2015-02-08T19:33:05.506Z,102284
2015-02-08T19:33:17.180Z,102294
2015-02-08T19:33:30.711Z,102288
2015-02-08T19:33:42.961Z,102282
2015-02-08T19:33:54.742Z,102294
2015-02-08T19:34:13.182Z,102282
2015-02-08T19:34:26.744Z,102294
2015-02-08T19:34:39.260Z,102282
2015-02-08T19:34:50.932Z,102288
2015-02-08T19:35:03.510Z,102288
2015-02-08T19:35:15.122Z,102285
2015-02-08T19:35:27.294Z,102282
2015-02-08T19:35:38.935Z,102288
2015-02-08T19:35:50.528Z,102282
2015-02-08T19:36:02.153Z,102291
2015-02-08T19:36:13.748Z,102278
2015-02-08T19:36:25.389Z,102278
2015-02-08T19:36:36.951Z,102272
2015-02-08T19:36:48.561Z,102278
2015-02-08T19:37:00.248Z,102278
2015-02-08T19:37:11.842Z,102272
2015-02-08T19:37:23.454Z,102278
2015-02-08T19:37:36.032Z,102290
2015-02-08T19:37:48.236Z,102275
2015-02-08T19:38:00.782Z,102272
2015-02-08T19:38:12.704Z,102269
2015-02-08T19:38:25.410Z,102275
2015-02-08T19:38:43.129Z,102269
2015-02-08T19:38:55.645Z,102275
2015-02-08T19:39:09.332Z,102278
2015-02-08T19:39:23.162Z,102278
2015-02-08T19:39:37.147Z,102284
2015-02-08T19:39:50.647Z,102284
2015-02-08T19:40:03.006Z,102282
2015-02-08T19:40:16.383Z,102285
2015-02-08T19:40:31.071Z,102291
2015-02-08T19:40:43.930Z,102288
2015-02-08T19:40:57.414Z,102284
2015-02-08T19:41:23.338Z,102282
2015-02-08T19:41:46.838Z,102291
2015-02-08T19:42:02.245Z,102282
2015-02-08T19:42:13.854Z,102282
2015-02-08T19:42:25.482Z,102291
2015-02-08T19:42:37.138Z,102294
2015-02-08T19:42:48.794Z,102273
2015-02-08T19:43:00.466Z,102285
2015-02-08T19:43:12.107Z,102279
2015-02-08T19:43:23.781Z,102291
2015-02-08T19:43:35.531Z,102279
2015-02-08T19:43:47.234Z,102282
2015-02-08T19:43:58.906Z,102285
2015-02-08T19:44:10.578Z,102279
2015-02-08T19:44:25.908Z,102276
2015-02-08T19:44:37.642Z,102276
2015-02-08T19:44:49.220Z,102276
2015-02-08T19:45:01.017Z,102279
2015-02-08T19:45:12.689Z,102279
2015-02-08T19:45:24.458Z,102282
2015-02-08T19:45:36.192Z,102273
2015-02-08T19:45:47.848Z,102272
2015-02-08T19:45:59.520Z,102279
2015-02-08T19:46:11.208Z,102272
2015-02-08T19:46:22.866Z,102273
2015-02-08T19:46:35.866Z,102282
2015-02-08T19:46:48.366Z,102276
2015-02-08T19:47:01.210Z,102276
2015-02-08T19:47:13.288Z,102273
2015-02-08T19:47:25.275Z,102276
2015-02-08T19:47:36.947Z,102282
2015-02-08T19:47:48.713Z,102279
2015-02-08T19:48:00.463Z,102273
2015-02-08T19:48:12.197Z,102279
2015-02-08T19:48:23.964Z,102273
2015-02-08T19:48:35.729Z,102279
2015-02-08T19:48:47.479Z,102273
2015-02-08T19:48:59.182Z,102270
2015-02-08T19:49:10.932Z,102276
2015-02-08T19:49:22.607Z,102273
2015-02-08T19:49:34.326Z,102279
2015-02-08T19:49:46.045Z,102279
2015-02-08T19:49:57.685Z,102270
2015-02-08T19:50:09.420Z,102276
2015-02-08T19:50:21.125Z,102272
2015-02-08T19:50:32.875Z,102282
2015-02-08T19:50:44.641Z,102282
2015-02-08T19:50:56.344Z,102279
2015-02-08T19:51:08.172Z,102279
2015-02-08T19:51:20.644Z,102282
2015-02-08T19:51:33.034Z,102275
2015-02-08T19:51:44.940Z,102278
2015-02-08T19:51:56.659Z,102278
2015-02-08T19:52:08.409Z,102275
2015-02-08T19:52:20.130Z,102266
2015-02-08T19:52:31.880Z,102279
2015-02-08T19:52:44.692Z,102276
2015-02-08T19:52:56.458Z,102285
2015-02-08T19:53:08.536Z,102279
2015-02-08T19:53:20.883Z,102276
2015-02-08T19:53:32.774Z,102276
2015-02-08T19:53:44.524Z,102273
2015-02-08T19:53:56.258Z,102282
2015-02-08T19:54:08.695Z,102281
2015-02-08T19:54:20.713Z,102272
2015-02-08T19:54:32.526Z,102279
2015-02-08T19:54:44.463Z,102279
2015-02-08T19:54:56.291Z,102288
2015-02-08T19:55:08.604Z,102281
2015-02-08T19:55:20.465Z,102278
2015-02-08T19:55:32.168Z,102281
2015-02-08T19:55:44.137Z,102278
2015-02-08T19:55:55.996Z,102284
2015-02-08T19:56:07.856Z,102287
2015-02-08T19:56:19.608Z,102281
2015-02-08T19:56:31.451Z,102281
2015-02-08T19:56:43.186Z,102284
2015-02-08T19:56:55.139Z,102290
2015-02-08T19:57:06.889Z,102278
2015-02-08T19:57:18.672Z,102284
2015-02-08T19:57:30.407Z,102294
2015-02-08T19:57:42.110Z,102282
2015-02-08T19:57:53.766Z,102281
2015-02-08T19:58:06.360Z,102282
2015-02-08T19:58:18.094Z,102279
2015-02-08T19:58:29.831Z,102279
2015-02-08T19:58:41.519Z,102288
2015-02-08T19:58:53.363Z,102279
2015-02-08T19:59:05.456Z,102278
2015-02-08T19:59:17.535Z,102275
2015-02-08T19:59:29.552Z,102278
2015-02-08T19:59:41.396Z,102285
2015-02-08T19:59:53.240Z,102281
2015-02-08T20:00:05.271Z,102282
2015-02-08T20:00:17.208Z,102285
2015-02-08T20:00:29.352Z,102279
2015-02-08T20:00:45.024Z,102279
2015-02-08T20:00:57.024Z,102276
2015-02-08T20:01:08.930Z,102267
2015-02-08T20:01:20.792Z,102279
2015-02-08T20:01:32.792Z,102273
2015-02-08T20:01:44.729Z,102273
2015-02-08T20:01:56.651Z,102266
2015-02-08T20:02:08.573Z,102269
2015-02-08T20:02:20.700Z,102263
2015-02-08T20:02:32.622Z,102266
2015-02-08T20:02:44.747Z,102269
2015-02-08T20:02:56.762Z,102266
2015-02-08T20:03:08.794Z,102260
2015-02-08T20:03:20.827Z,102263
2015-02-08T20:03:32.874Z,102263
2015-02-08T20:03:45.046Z,102269
2015-02-08T20:03:58.311Z,102266
2015-02-08T20:04:10.264Z,102269
2015-02-08T20:04:22.330Z,102263
2015-02-08T20:04:34.877Z,102266
2015-02-08T20:04:46.658Z,102263
2015-02-08T20:04:58.455Z,102260
2015-02-08T20:05:10.408Z,102266
2015-02-08T20:05:22.394Z,102272
2015-02-08T20:05:34.238Z,102263
2015-02-08T20:05:46.207Z,102269
2015-02-08T20:05:58.222Z,102260
2015-02-08T20:06:10.144Z,102272
2015-02-08T20:06:22.007Z,102260
2015-02-08T20:06:33.866Z,102260
2015-02-08T20:06:45.772Z,102269
2015-02-08T20:06:57.663Z,102263
2015-02-08T20:07:09.600Z,102254
2015-02-08T20:07:21.446Z,102272
2015-02-08T20:07:33.321Z,102269
2015-02-08T20:07:45.274Z,102251
2015-02-08T20:07:57.118Z,102260
2015-02-08T20:08:08.946Z,102257
2015-02-08T20:08:20.808Z,102266
2015-02-08T20:08:32.776Z,102263
2015-02-08T20:08:45.198Z,102269
2015-02-08T20:08:58.292Z,102251
2015-02-08T20:09:10.901Z,102254
2015-02-08T20:09:23.388Z,102263
2015-02-08T20:09:35.606Z,102260
2015-02-08T20:09:47.575Z,102254
2015-02-08T20:09:59.669Z,102260
2015-02-08T20:10:11.997Z,102263
2015-02-08T20:10:24.172Z,102266
2015-02-08T20:10:36.484Z,102260
2015-02-08T20:10:48.750Z,102263
2015-02-08T20:11:00.781Z,102257
2015-02-08T20:11:13.109Z,102257
2015-02-08T20:11:25.143Z,102266
2015-02-08T20:11:37.018Z,102272
2015-02-08T20:11:48.674Z,102260
2015-02-08T20:12:00.705Z,102257
2015-02-08T20:12:13.190Z,102263
2015-02-08T20:12:25.363Z,102257
2015-02-08T20:12:37.457Z,102260
2015-02-08T20:12:49.582Z,102263
2015-02-08T20:13:02.192Z,102254
2015-02-08T20:13:13.988Z,102257
2015-02-08T20:13:25.944Z,102254
2015-02-08T20:13:37.834Z,102251
2015-02-08T20:13:49.912Z,102248
2015-02-08T20:14:01.756Z,102263
2015-02-08T20:14:13.506Z,102254
2015-02-08T20:14:25.525Z,102251
2015-02-08T20:14:37.400Z,102254
2015-02-08T20:14:49.431Z,102248
2015-02-08T20:15:01.525Z,102260
2015-02-08T20:15:13.743Z,102254
2015-02-08T20:15:25.730Z,102248
2015-02-08T20:15:37.683Z,102254
2015-02-08T20:15:49.870Z,102251
2015-02-08T20:16:01.667Z,102257
2015-02-08T20:16:13.589Z,102251
2015-02-08T20:16:25.794Z,102241
2015-02-08T20:16:37.685Z,102250
2015-02-08T20:16:49.732Z,102247
2015-02-08T20:17:01.935Z,102241
2015-02-08T20:17:13.935Z,102250
2015-02-08T20:17:25.828Z,102241
2015-02-08T20:17:37.828Z,102244
2015-02-08T20:17:49.734Z,102244
2015-02-08T20:18:01.812Z,102241
2015-02-08T20:18:13.921Z,102238
2015-02-08T20:18:29.690Z,102247
2015-02-08T20:18:41.768Z,102241
2015-02-08T20:18:53.768Z,102244
2015-02-08T20:19:05.581Z,102248
2015-02-08T20:19:17.768Z,102245
2015-02-08T20:19:29.926Z,102254
2015-02-08T20:19:42.301Z,102244
2015-02-08T20:19:54.864Z,102247
2015-02-08T20:20:07.051Z,102229
2015-02-08T20:20:19.067Z,102241
2015-02-08T20:20:31.429Z,102247
2015-02-08T20:20:43.539Z,102250
2015-02-08T20:20:55.617Z,102241
2015-02-08T20:21:08.023Z,102247
2015-02-08T20:21:20.211Z,102259
2015-02-08T20:21:32.430Z,102250
2015-02-08T20:21:44.430Z,102247
2015-02-08T20:21:56.524Z,102250
2015-02-08T20:22:08.665Z,102238
2015-02-08T20:22:20.805Z,102247
2015-02-08T20:22:32.965Z,102241
2015-02-08T20:22:44.996Z,102241
2015-02-08T20:22:57.183Z,102241
2015-02-08T20:23:09.386Z,102241
2015-02-08T20:23:21.527Z,102244
2015-02-08T20:23:33.404Z,102247
2015-02-08T20:23:45.263Z,102244
2015-02-08T20:23:57.295Z,102244
2015-02-08T20:24:09.295Z,102235
2015-02-08T20:24:21.295Z,102244
2015-02-08T20:24:33.407Z,102238
2015-02-08T20:24:45.454Z,102250
2015-02-08T20:24:57.376Z,102241
2015-02-08T20:25:09.391Z,102241
2015-02-08T20:25:21.438Z,102247
2015-02-08T20:25:33.503Z,102244
2015-02-08T20:25:45.768Z,102253
2015-02-08T20:25:58.331Z,102247
2015-02-08T20:26:10.425Z,102256
2015-02-08T20:26:22.393Z,102244
2015-02-08T20:26:34.662Z,102244
2015-02-08T20:26:47.318Z,102253
2015-02-08T20:26:59.287Z,102253
2015-02-08T20:27:11.303Z,102244
2015-02-08T20:27:23.569Z,102250
2015-02-08T20:27:35.694Z,102243
2015-02-08T20:27:47.476Z,102247
2015-02-08T20:27:59.085Z,102249
2015-02-08T20:28:10.694Z,102252
2015-02-08T20:28:22.460Z,102243
2015-02-08T20:28:34.057Z,102253
2015-02-08T20:28:45.697Z,102249
2015-02-08T20:28:57.713Z,102256
2015-02-08T20:29:10.197Z,102249
2015-02-08T20:29:23.810Z,102262
2015-02-08T20:29:35.482Z,102253
2015-02-08T20:29:47.107Z,102258
2015-02-08T20:29:58.919Z,102262
2015-02-08T20:30:10.700Z,102258
2015-02-08T20:30:22.575Z,102259
2015-02-08T20:30:34.452Z,102262
2015-02-08T20:30:46.312Z,102262
2015-02-08T20:30:58.171Z,102252
2015-02-08T20:31:10.155Z,102261
2015-02-08T20:31:22.296Z,102261
2015-02-08T20:31:34.251Z,102256
2015-02-08T20:31:46.392Z,102259
2015-02-08T20:31:58.423Z,102262
2015-02-08T20:32:10.282Z,102265
2015-02-08T20:32:22.251Z,102255
2015-02-08T20:32:34.097Z,102258
2015-02-08T20:32:45.909Z,102256
2015-02-08T20:32:57.691Z,102259
2015-02-08T20:33:09.644Z,102249
2015-02-08T20:33:21.644Z,102252
2015-02-08T20:33:33.505Z,102255
2015-02-08T20:33:45.427Z,102261
2015-02-08T20:33:57.271Z,102268
2015-02-08T20:34:09.177Z,102259
2015-02-08T20:34:21.240Z,102262
2015-02-08T20:34:33.258Z,102265
2015-02-08T20:34:45.055Z,102262
2015-02-08T20:34:57.071Z,102259
2015-02-08T20:35:15.602Z,102265
2015-02-08T20:35:27.386Z,102271
2015-02-08T20:35:39.449Z,102265
2015-02-08T20:35:51.511Z,102259
2015-02-08T20:36:03.246Z,102253
2015-02-08T20:36:15.136Z,102268
2015-02-08T20:36:26.966Z,102262
2015-02-08T20:36:38.841Z,102259
2015-02-08T20:36:50.841Z,102265
2015-02-08T20:37:02.982Z,102253
2015-02-08T20:37:14.716Z,102266
2015-02-08T20:37:26.811Z,102262
2015-02-08T20:37:38.733Z,102268
2015-02-08T20:37:50.358Z,102262
2015-02-08T20:38:02.280Z,102262
2015-02-08T20:38:14.077Z,102262
2015-02-08T20:38:26.048Z,102262
2015-02-08T20:38:37.861Z,102268
2015-02-08T20:38:49.892Z,102265
2015-02-08T20:39:01.752Z,102265
2015-02-08T20:39:14.080Z,102268
2015-02-08T20:39:25.989Z,102247
2015-02-08T20:39:37.692Z,102265
2015-02-08T20:39:49.645Z,102256
2015-02-08T20:40:01.520Z,102268
2015-02-08T20:40:13.489Z,102247
2015-02-08T20:40:25.366Z,102265
2015-02-08T20:40:37.350Z,102256
2015-02-08T20:40:49.303Z,102268
2015-02-08T20:41:01.210Z,102256
2015-02-08T20:41:13.007Z,102268
2015-02-08T20:41:24.852Z,102262
2015-02-08T20:41:36.790Z,102271
2015-02-08T20:41:48.696Z,102271
2015-02-08T20:42:00.649Z,102278
2015-02-08T20:42:12.555Z,102272
2015-02-08T20:42:24.259Z,102266
2015-02-08T20:42:36.136Z,102272
2015-02-08T20:42:47.870Z,102263
2015-02-08T20:42:59.823Z,102269
2015-02-08T20:43:11.698Z,102269
2015-02-08T20:43:23.526Z,102275
2015-02-08T20:43:35.200Z,102272
2015-02-08T20:43:46.950Z,102272
2015-02-08T20:43:58.794Z,102275
2015-02-08T20:44:10.919Z,102271
2015-02-08T20:44:22.778Z,102278
2015-02-08T20:44:34.531Z,102271
2015-02-08T20:44:46.484Z,102277
2015-02-08T20:44:58.250Z,102271
2015-02-08T20:45:10.031Z,102275
2015-02-08T20:45:21.687Z,102271
2015-02-08T20:45:33.611Z,102271
2015-02-08T20:45:45.408Z,102265
2015-02-08T20:45:57.111Z,102262
2015-02-08T20:46:08.971Z,102265
2015-02-08T20:46:21.033Z,102271
2015-02-08T20:46:32.911Z,102271
2015-02-08T20:46:45.099Z,102269
2015-02-08T20:46:57.067Z,102272
2015-02-08T20:47:08.911Z,102269
2015-02-08T20:47:20.739Z,102272
2015-02-08T20:47:32.788Z,102266
2015-02-08T20:47:44.585Z,102263
2015-02-08T20:47:56.523Z,102266
2015-02-08T20:48:08.569Z,102268
2015-02-08T20:48:20.335Z,102259
2015-02-08T20:48:32.368Z,102265
2015-02-08T20:48:44.321Z,102259
2015-02-08T20:48:56.228Z,102268
2015-02-08T20:49:08.025Z,102256
2015-02-08T20:49:20.009Z,102250
2015-02-08T20:49:32.073Z,102256
2015-02-08T20:49:43.964Z,102250
2015-02-08T20:49:55.777Z,102259
2015-02-08T20:50:07.886Z,102256
2015-02-08T20:50:19.714Z,102256
2015-02-08T20:50:31.451Z,102256
2015-02-08T20:50:43.030Z,102253
2015-02-08T20:50:54.670Z,102268
2015-02-08T20:51:06.280Z,102259
2015-02-08T20:51:17.983Z,102256
2015-02-08T20:51:29.875Z,102262
2015-02-08T20:51:41.641Z,102253
2015-02-08T20:51:53.657Z,102250
2015-02-08T20:52:05.438Z,102253
2015-02-08T20:52:17.438Z,102253
2015-02-08T20:52:29.238Z,102256
2015-02-08T20:52:41.144Z,102262
2015-02-08T20:52:52.925Z,102244
2015-02-08T20:53:04.706Z,102253
2015-02-08T20:53:16.597Z,102253
2015-02-08T20:53:28.474Z,102247
2015-02-08T20:53:40.302Z,102256
2015-02-08T20:53:51.974Z,102256
2015-02-08T20:54:04.177Z,102253
2015-02-08T20:54:16.115Z,102257
2015-02-08T20:54:28.070Z,102253
2015-02-08T20:54:39.976Z,102244
2015-02-08T20:54:51.851Z,102247
2015-02-08T20:55:03.898Z,102250
2015-02-08T20:55:17.054Z,102253
2015-02-08T20:55:28.900Z,102253
2015-02-08T20:55:40.728Z,102257
2015-02-08T20:55:52.822Z,102248
2015-02-08T20:56:05.744Z,102248
2015-02-08T20:56:17.587Z,102254
2015-02-08T20:56:29.747Z,102254
2015-02-08T20:56:43.387Z,102248
2015-02-08T20:56:55.294Z,102244
2015-02-08T20:57:07.215Z,102260
2015-02-08T20:57:19.075Z,102235
2015-02-08T20:57:30.921Z,102247